createdAt,value
2018-03-18T00:00:29.314Z,18.53
2018-03-18T00:03:01.687Z,18.25
2018-03-18T00:05:28.925Z,18.31
2018-03-18T00:07:56.229Z,17.78
2018-03-18T00:10:24.153Z,18.06
2018-03-18T00:12:52.557Z,18.12
2018-03-18T00:15:19.914Z,18.24
2018-03-18T00:17:47.233Z,18.03
2018-03-18T00:20:14.535Z,18.08
2018-03-18T00:22:42.845Z,18.00
2018-03-18T00:25:09.980Z,17.92
2018-03-18T00:27:37.245Z,18.05
2018-03-18T00:30:04.320Z,18.12
2018-03-18T00:32:31.580Z,18.01
2018-03-18T00:34:58.742Z,17.93
2018-03-18T00:37:31.805Z,17.77
2018-03-18T00:39:59.122Z,17.84
2018-03-18T00:42:26.621Z,17.75
2018-03-18T00:44:53.977Z,17.80
2018-03-18T00:47:21.260Z,17.95
2018-03-18T00:49:48.572Z,17.75
2018-03-18T00:52:19.471Z,17.37
2018-03-18T00:54:46.671Z,17.26
2018-03-18T00:57:13.901Z,17.18
2018-03-18T00:59:41.224Z,17.19
2018-03-18T01:02:09.661Z,17.11
2018-03-18T01:04:36.852Z,17.20
2018-03-18T01:07:03.968Z,17.00
2018-03-18T01:09:31.230Z,16.86
2018-03-18T01:11:59.707Z,16.96
2018-03-18T01:14:26.898Z,16.90
2018-03-18T01:16:54.180Z,16.86
2018-03-18T01:19:21.348Z,16.88
2018-03-18T01:21:49.617Z,16.98
2018-03-18T01:24:16.849Z,17.01
2018-03-18T01:26:44.162Z,17.15
2018-03-18T01:29:11.290Z,17.10
2018-03-18T01:31:42.529Z,17.08
2018-03-18T01:34:09.830Z,17.00
2018-03-18T01:36:37.313Z,17.13
2018-03-18T01:39:04.498Z,17.01
2018-03-18T01:41:35.315Z,17.13
2018-03-18T01:44:02.473Z,17.02
2018-03-18T01:46:29.870Z,16.33
2018-03-18T01:48:57.059Z,16.17
2018-03-18T01:51:29.740Z,16.29
2018-03-18T01:53:56.954Z,16.57
2018-03-18T01:56:24.106Z,16.65
2018-03-18T02:01:40.081Z,16.59
2018-03-18T02:04:07.358Z,16.37
2018-03-18T02:06:34.561Z,16.36
2018-03-18T02:09:01.829Z,16.76
2018-03-18T02:11:31.035Z,16.69
2018-03-18T02:13:58.261Z,16.54
2018-03-18T02:16:25.533Z,16.31
2018-03-18T02:18:52.695Z,16.22
2018-03-18T02:21:23.512Z,16.15
2018-03-18T02:23:50.821Z,16.01
2018-03-18T02:26:17.957Z,16.16
2018-03-18T02:28:45.105Z,16.38
2018-03-18T02:31:14.074Z,16.28
2018-03-18T02:33:41.311Z,16.39
2018-03-18T02:36:08.582Z,16.46
2018-03-18T02:38:35.818Z,16.48
2018-03-18T02:41:04.174Z,16.55
2018-03-18T02:43:32.242Z,16.52
2018-03-18T02:45:59.818Z,16.65
2018-03-18T02:48:27.092Z,16.47
2018-03-18T02:50:55.365Z,16.46
2018-03-18T02:53:22.987Z,16.42
2018-03-18T02:55:50.246Z,16.36
2018-03-18T02:58:17.448Z,16.26
2018-03-18T03:00:44.753Z,16.24
2018-03-18T03:03:12.112Z,16.29
2018-03-18T03:05:40.230Z,16.21
2018-03-18T03:08:08.111Z,16.25
2018-03-18T03:10:36.113Z,16.24
2018-03-18T03:13:04.390Z,16.07
2018-03-18T03:15:31.580Z,15.81
2018-03-18T03:17:58.966Z,15.66
2018-03-18T03:20:26.117Z,15.62
2018-03-18T03:22:57.239Z,15.62
2018-03-18T03:25:24.556Z,15.34
2018-03-18T03:27:51.961Z,15.17
2018-03-18T03:30:19.256Z,15.41
2018-03-18T03:32:47.547Z,15.39
2018-03-18T03:35:14.742Z,15.55
2018-03-18T03:37:41.969Z,15.62
2018-03-18T03:40:09.182Z,15.30
2018-03-18T03:42:36.588Z,15.06
2018-03-18T03:45:04.237Z,15.01
2018-03-18T03:47:32.184Z,15.09
2018-03-18T03:49:59.370Z,15.19
2018-03-18T03:52:30.263Z,14.87
2018-03-18T03:54:57.507Z,14.97
2018-03-18T03:57:24.612Z,14.45
2018-03-18T03:59:51.844Z,14.66
2018-03-18T04:02:22.196Z,14.60
2018-03-18T04:04:49.411Z,14.99
2018-03-18T04:07:16.669Z,15.21
2018-03-18T04:09:43.821Z,14.92
2018-03-18T04:12:12.237Z,14.64
2018-03-18T04:14:39.545Z,14.78
2018-03-18T04:17:06.819Z,14.65
2018-03-18T04:19:33.903Z,14.84
2018-03-18T04:22:02.215Z,14.79
2018-03-18T04:24:29.366Z,14.39
2018-03-18T04:26:56.601Z,14.21
2018-03-18T04:29:23.746Z,14.16
2018-03-18T04:31:54.360Z,14.45
2018-03-18T04:34:21.550Z,14.61
2018-03-18T04:36:48.798Z,14.31
2018-03-18T04:39:21.993Z,14.70
2018-03-18T04:41:51.421Z,14.53
2018-03-18T04:44:18.601Z,14.51
2018-03-18T04:46:45.901Z,14.18
2018-03-18T04:49:13.080Z,14.45
2018-03-18T04:51:41.554Z,14.82
2018-03-18T04:54:09.667Z,14.59
2018-03-18T04:56:38.145Z,14.53
2018-03-18T04:59:05.431Z,15.22
2018-03-18T05:01:33.897Z,15.47
2018-03-18T05:04:01.035Z,15.19
2018-03-18T05:06:28.917Z,15.34
2018-03-18T05:08:56.444Z,15.16
2018-03-18T05:11:26.985Z,14.84
2018-03-18T05:13:54.569Z,14.82
2018-03-18T05:16:21.720Z,14.74
2018-03-18T05:18:49.078Z,15.08
2018-03-18T05:21:20.225Z,15.05
2018-03-18T05:23:47.381Z,15.31
2018-03-18T05:26:14.608Z,15.16
2018-03-18T05:28:41.868Z,14.79
2018-03-18T05:31:10.261Z,15.05
2018-03-18T05:33:37.606Z,14.62
2018-03-18T05:36:04.829Z,15.10
2018-03-18T05:38:32.116Z,14.71
2018-03-18T05:41:00.574Z,14.79
2018-03-18T05:43:27.867Z,14.13
2018-03-18T05:45:54.939Z,14.15
2018-03-18T05:48:23.026Z,13.82
2018-03-18T05:50:51.502Z,13.78
2018-03-18T05:53:18.558Z,13.67
2018-03-18T05:55:45.833Z,13.61
2018-03-18T05:58:13.002Z,13.29
2018-03-18T06:00:44.297Z,12.96
2018-03-18T06:03:11.624Z,13.36
2018-03-18T06:05:38.803Z,13.60
2018-03-18T06:08:06.527Z,14.02
2018-03-18T06:10:34.701Z,13.17
2018-03-18T06:13:02.659Z,12.71
2018-03-18T06:15:29.819Z,12.83
2018-03-18T06:17:56.974Z,12.94
2018-03-18T06:20:27.258Z,12.90
2018-03-18T06:22:55.078Z,12.76
2018-03-18T06:25:23.205Z,12.16
2018-03-18T06:27:50.492Z,12.19
2018-03-18T06:30:17.894Z,12.41
2018-03-18T06:32:45.473Z,12.05
2018-03-18T06:35:12.754Z,13.46
2018-03-18T06:37:40.066Z,14.52
2018-03-18T06:40:08.090Z,15.80
2018-03-18T06:42:35.406Z,13.25
2018-03-18T06:45:02.693Z,14.48
2018-03-18T06:47:29.910Z,13.58
2018-03-18T06:49:57.599Z,13.53
2018-03-18T06:52:27.808Z,14.18
2018-03-18T06:54:55.034Z,14.30
2018-03-18T06:57:22.224Z,15.30
2018-03-18T06:59:49.654Z,16.67
2018-03-18T07:02:17.814Z,13.92
2018-03-18T07:04:45.114Z,13.19
2018-03-18T07:07:12.406Z,14.31
2018-03-18T07:09:39.730Z,14.68
2018-03-18T07:12:07.024Z,14.74
2018-03-18T07:14:34.414Z,13.56
2018-03-18T07:17:02.277Z,13.43
2018-03-18T07:19:29.430Z,12.99
2018-03-18T07:21:56.835Z,13.32
2018-03-18T07:24:24.984Z,12.99
2018-03-18T07:26:52.255Z,13.02
2018-03-18T07:29:19.397Z,14.33
2018-03-18T07:31:46.626Z,13.10
2018-03-18T07:34:14.683Z,11.91
2018-03-18T07:36:42.037Z,11.68
2018-03-18T07:39:09.285Z,11.63
2018-03-18T07:41:36.975Z,11.72
2018-03-18T07:44:04.306Z,11.97
2018-03-18T07:46:31.490Z,12.13
2018-03-18T07:48:58.744Z,12.50
2018-03-18T07:51:26.038Z,12.65
2018-03-18T07:53:53.280Z,12.79
2018-03-18T07:56:20.595Z,12.27
2018-03-18T07:58:47.703Z,12.27
2018-03-18T08:01:15.186Z,12.41
2018-03-18T08:03:43.189Z,11.91
2018-03-18T08:06:10.395Z,12.10
2018-03-18T08:08:37.572Z,11.83
2018-03-18T08:11:04.926Z,11.69
2018-03-18T08:13:32.129Z,11.44
2018-03-18T08:15:59.495Z,11.68
2018-03-18T08:18:26.781Z,11.72
2018-03-18T08:20:54.127Z,11.02
2018-03-18T08:23:21.283Z,11.21
2018-03-18T08:25:48.642Z,11.34
2018-03-18T08:28:15.625Z,11.65
2018-03-18T08:30:43.813Z,11.08
2018-03-18T08:33:11.006Z,11.60
2018-03-18T08:35:38.371Z,11.52
2018-03-18T08:38:05.506Z,11.66
2018-03-18T08:40:33.993Z,11.06
2018-03-18T08:43:03.555Z,10.77
2018-03-18T08:45:33.997Z,10.76
2018-03-18T08:48:01.423Z,10.96
2018-03-18T08:50:32.759Z,9.92
2018-03-18T08:52:59.949Z,9.92
2018-03-18T08:55:27.238Z,9.98
2018-03-18T08:57:54.489Z,9.79
2018-03-18T09:00:23.347Z,9.60
2018-03-18T09:02:50.594Z,9.31
2018-03-18T09:05:17.965Z,9.12
2018-03-18T09:07:45.213Z,9.12
2018-03-18T09:10:13.635Z,9.78
2018-03-18T09:12:40.972Z,9.94
2018-03-18T09:15:08.175Z,9.59
2018-03-18T09:17:35.462Z,9.36
2018-03-18T09:20:02.872Z,9.68
2018-03-18T09:22:30.110Z,9.32
2018-03-18T09:24:57.262Z,9.04
2018-03-18T09:27:24.577Z,9.04
2018-03-18T09:29:52.779Z,9.24
2018-03-18T09:32:19.793Z,9.50
2018-03-18T09:34:46.919Z,9.36
2018-03-18T09:37:14.101Z,8.65
2018-03-18T09:39:41.310Z,8.76
2018-03-18T09:42:08.625Z,8.43
2018-03-18T09:44:35.824Z,8.37
2018-03-18T09:47:03.115Z,8.05
2018-03-18T09:49:30.613Z,8.35
2018-03-18T09:51:58.978Z,8.82
2018-03-18T09:54:26.179Z,8.65
2018-03-18T09:56:53.454Z,8.33
2018-03-18T09:59:20.886Z,8.66
2018-03-18T10:01:51.752Z,8.78
2018-03-18T10:04:19.292Z,8.47
2018-03-18T10:06:47.551Z,8.47
2018-03-18T10:09:18.632Z,8.73
2018-03-18T10:11:47.738Z,8.88
2018-03-18T10:14:15.199Z,9.61
2018-03-18T10:16:42.391Z,9.70
2018-03-18T10:19:09.616Z,8.72
2018-03-18T10:21:37.151Z,8.59
2018-03-18T10:24:04.461Z,9.21
2018-03-18T10:26:31.809Z,8.97
2018-03-18T10:28:59.765Z,9.91
2018-03-18T10:31:33.174Z,9.21
2018-03-18T10:34:01.453Z,9.19
2018-03-18T10:36:28.795Z,8.97
2018-03-18T10:38:56.926Z,8.91
2018-03-18T10:41:24.079Z,8.88
2018-03-18T10:43:51.454Z,8.60
2018-03-18T10:46:18.703Z,8.19
2018-03-18T10:48:45.958Z,8.26
2018-03-18T10:51:14.954Z,8.08
2018-03-18T10:53:42.210Z,8.05
2018-03-18T10:56:09.510Z,8.19
2018-03-18T10:58:36.671Z,7.99
2018-03-18T11:01:09.770Z,8.21
2018-03-18T11:03:37.014Z,8.02
2018-03-18T11:06:04.226Z,8.20
2018-03-18T11:08:31.385Z,7.66
2018-03-18T11:11:04.509Z,7.92
2018-03-18T11:13:31.790Z,8.26
2018-03-18T11:15:59.095Z,7.88
2018-03-18T11:18:26.390Z,8.17
2018-03-18T11:20:54.642Z,8.18
2018-03-18T11:23:21.907Z,7.73
2018-03-18T11:25:49.179Z,7.63
2018-03-18T11:28:16.478Z,7.21
2018-03-18T11:30:44.710Z,6.99
2018-03-18T11:33:11.976Z,6.87
2018-03-18T11:35:39.263Z,7.36
2018-03-18T11:38:06.476Z,7.07
2018-03-18T11:40:34.679Z,7.18
2018-03-18T11:43:01.939Z,6.79
2018-03-18T11:45:29.138Z,7.11
2018-03-18T11:47:56.440Z,6.72
2018-03-18T11:50:31.270Z,7.21
2018-03-18T11:52:58.619Z,6.88
2018-03-18T11:55:25.798Z,6.50
2018-03-18T11:57:53.885Z,6.43
2018-03-18T12:00:27.203Z,7.17
2018-03-18T12:02:54.558Z,6.88
2018-03-18T12:05:21.786Z,6.56
2018-03-18T12:07:49.019Z,6.61
2018-03-18T12:10:22.032Z,6.67
2018-03-18T12:12:49.258Z,6.84
2018-03-18T12:15:16.782Z,6.47
2018-03-18T12:17:44.740Z,6.04
2018-03-18T12:20:15.484Z,5.97
2018-03-18T12:22:42.722Z,6.15
2018-03-18T12:25:10.131Z,5.85
2018-03-18T12:27:37.394Z,5.82
2018-03-18T12:30:08.372Z,5.91
2018-03-18T12:32:36.445Z,5.62
2018-03-18T12:35:03.571Z,5.65
2018-03-18T12:37:30.681Z,5.87
2018-03-18T12:40:16.842Z,5.54
2018-03-18T12:45:44.386Z,5.60
2018-03-18T12:48:11.590Z,5.56
2018-03-18T12:50:39.761Z,5.88
2018-03-18T12:53:07.750Z,5.47
2018-03-18T12:55:34.876Z,5.81
2018-03-18T12:58:02.117Z,5.50
2018-03-18T13:00:33.800Z,5.68
2018-03-18T13:03:00.947Z,6.13
2018-03-18T13:05:28.077Z,6.13
2018-03-18T13:07:55.364Z,6.00
2018-03-18T13:10:26.067Z,5.82
2018-03-18T13:12:53.314Z,5.82
2018-03-18T13:15:20.599Z,5.63
2018-03-18T13:17:48.532Z,5.22
2018-03-18T13:20:20.238Z,5.13
2018-03-18T13:22:48.259Z,4.88
2018-03-18T13:25:15.664Z,5.14
2018-03-18T13:27:42.891Z,4.79
2018-03-18T13:30:10.196Z,4.69
2018-03-18T13:32:37.478Z,4.89
2018-03-18T13:35:04.573Z,4.68
2018-03-18T13:37:32.415Z,4.52
2018-03-18T13:40:01.154Z,4.67
2018-03-18T13:42:28.266Z,4.34
2018-03-18T13:44:55.529Z,4.28
2018-03-18T13:47:22.870Z,4.59
2018-03-18T13:49:50.358Z,4.29
2018-03-18T13:52:17.749Z,4.33
2018-03-18T13:54:44.983Z,4.14
2018-03-18T13:57:12.322Z,4.19
2018-03-18T13:59:40.539Z,3.97
2018-03-18T14:02:07.796Z,3.88
2018-03-18T14:04:35.355Z,4.01
2018-03-18T14:07:02.659Z,4.18
2018-03-18T14:09:33.954Z,3.93
2018-03-18T14:12:01.111Z,3.86
2018-03-18T14:14:29.142Z,3.99
2018-03-18T14:16:56.352Z,3.90
2018-03-18T14:19:24.731Z,3.68
2018-03-18T14:21:52.106Z,3.90
2018-03-18T14:24:19.406Z,3.56
2018-03-18T14:26:46.633Z,3.65
2018-03-18T14:29:16.956Z,3.89
2018-03-18T14:31:44.178Z,3.97
2018-03-18T14:34:11.343Z,3.57
2018-03-18T14:36:38.622Z,3.45
2018-03-18T14:39:05.814Z,3.75
2018-03-18T14:41:33.052Z,3.62
2018-03-18T14:44:01.066Z,3.47
2018-03-18T14:46:28.821Z,3.52
2018-03-18T14:48:56.096Z,3.64
2018-03-18T14:51:23.439Z,3.74
2018-03-18T14:53:50.642Z,3.62
2018-03-18T14:56:18.300Z,3.34
2018-03-18T14:58:45.858Z,3.27
2018-03-18T15:01:13.198Z,3.60
2018-03-18T15:03:40.528Z,3.51
2018-03-18T15:06:07.808Z,3.23
2018-03-18T15:08:35.279Z,3.01
2018-03-18T15:11:05.876Z,3.08
2018-03-18T15:13:33.103Z,3.03
2018-03-18T15:16:01.096Z,2.97
2018-03-18T15:18:28.360Z,2.94
2018-03-18T15:20:56.035Z,2.98
2018-03-18T15:23:23.400Z,3.24
2018-03-18T15:25:50.586Z,3.44
2018-03-18T15:28:17.930Z,3.17
2018-03-18T15:30:45.166Z,3.08
2018-03-18T15:33:12.305Z,3.05
2018-03-18T15:35:39.633Z,3.18
2018-03-18T15:41:54.066Z,2.92
2018-03-18T15:44:21.880Z,2.98
2018-03-18T15:46:49.150Z,2.71
2018-03-18T15:49:23.042Z,2.71
2018-03-18T15:51:50.376Z,2.63
2018-03-18T15:54:17.704Z,2.64
2018-03-18T15:56:45.028Z,2.67
2018-03-18T15:59:16.280Z,2.69
2018-03-18T16:01:43.615Z,2.52
2018-03-18T16:04:10.969Z,2.65
2018-03-18T16:06:38.327Z,2.56
2018-03-18T16:09:06.848Z,2.41
2018-03-18T16:11:34.193Z,2.25
2018-03-18T16:14:02.083Z,2.26
2018-03-18T16:16:30.223Z,2.18
2018-03-18T16:18:57.581Z,2.24
2018-03-18T16:21:24.727Z,2.19
2018-03-18T16:23:51.974Z,2.04
2018-03-18T16:26:19.284Z,2.30
2018-03-18T16:28:46.627Z,2.42
2018-03-18T16:31:17.428Z,2.22
2018-03-18T16:33:44.639Z,2.19
2018-03-18T16:36:11.811Z,2.32
2018-03-18T16:38:39.045Z,2.21
2018-03-18T16:41:06.219Z,2.49
2018-03-18T16:43:33.499Z,2.43
2018-03-18T16:46:00.798Z,2.33
2018-03-18T16:48:27.983Z,2.51
2018-03-18T16:50:55.388Z,2.26
2018-03-18T16:53:22.638Z,2.44
2018-03-18T16:55:53.386Z,2.44
2018-03-18T16:58:21.876Z,2.16
2018-03-18T17:00:49.348Z,2.19
2018-03-18T17:03:16.566Z,2.26
2018-03-18T17:05:43.929Z,2.15
2018-03-18T17:08:11.820Z,2.01
2018-03-18T17:10:40.211Z,2.07
2018-03-18T17:13:08.169Z,2.06
2018-03-18T17:15:35.496Z,2.19
2018-03-18T17:18:03.290Z,2.11
2018-03-18T17:20:31.970Z,2.14
2018-03-18T17:22:59.384Z,2.30
2018-03-18T17:25:26.870Z,1.98
2018-03-18T17:27:55.615Z,2.03
2018-03-18T17:30:23.207Z,1.96
2018-03-18T17:32:50.954Z,2.03
2018-03-18T17:35:18.355Z,1.98
2018-03-18T17:37:45.692Z,2.00
2018-03-18T17:40:13.935Z,1.93
2018-03-18T17:42:41.238Z,2.01
2018-03-18T17:45:27.721Z,2.28
2018-03-18T17:48:12.818Z,2.07
2018-03-18T17:50:59.582Z,2.26
2018-03-18T17:53:44.782Z,2.20
2018-03-18T17:56:29.903Z,2.20
2018-03-18T17:59:01.632Z,2.17
2018-03-18T18:01:28.994Z,2.09
2018-03-18T18:03:57.618Z,2.07
2018-03-18T18:06:24.908Z,2.14
2018-03-18T18:08:53.338Z,2.22
2018-03-18T18:11:20.674Z,2.21
2018-03-18T18:13:49.684Z,2.47
2018-03-18T18:16:16.835Z,2.49
2018-03-18T18:18:45.883Z,2.19
2018-03-18T18:21:13.602Z,2.20
2018-03-18T18:23:40.991Z,2.38
2018-03-18T18:26:08.174Z,2.29
2018-03-18T18:28:41.226Z,2.06
2018-03-18T18:31:08.559Z,2.10
2018-03-18T18:33:35.842Z,2.31
2018-03-18T18:36:03.052Z,2.24
2018-03-18T18:38:31.923Z,2.27
2018-03-18T18:40:59.515Z,2.18
2018-03-18T18:43:27.126Z,2.17
2018-03-18T18:45:54.804Z,2.15
2018-03-18T18:48:22.252Z,2.17
2018-03-18T18:50:50.438Z,2.23
2018-03-18T18:53:18.482Z,2.27
2018-03-18T18:55:47.583Z,2.16
2018-03-18T18:58:14.738Z,2.13
2018-03-18T19:00:43.482Z,2.04
2018-03-18T19:03:10.795Z,2.10
2018-03-18T19:05:38.127Z,2.07
2018-03-18T19:08:05.463Z,2.09
2018-03-18T19:10:35.885Z,2.18
2018-03-18T19:13:04.158Z,2.11
2018-03-18T19:15:34.292Z,2.17
2018-03-18T19:18:05.817Z,2.08
2018-03-18T19:20:34.926Z,2.20
2018-03-18T19:23:02.943Z,2.21
2018-03-18T19:25:30.277Z,2.01
2018-03-18T19:27:57.495Z,1.97
2018-03-18T19:30:27.868Z,2.10
2018-03-18T19:32:55.268Z,2.19
2018-03-18T19:35:23.647Z,2.21
2018-03-18T19:37:50.956Z,1.86
2018-03-18T19:40:22.167Z,1.68
2018-03-18T19:42:49.413Z,1.55
2018-03-18T19:45:17.673Z,1.42
2018-03-18T19:47:45.168Z,1.55
2018-03-18T19:50:12.582Z,1.46
2018-03-18T19:52:39.936Z,1.26
2018-03-18T19:55:08.316Z,1.30
2018-03-18T19:57:36.213Z,1.16
2018-03-18T20:00:04.752Z,0.95
2018-03-18T20:02:32.074Z,0.97
2018-03-18T20:04:59.312Z,0.90
2018-03-18T20:07:27.511Z,0.72
2018-03-18T20:09:55.099Z,0.71
2018-03-18T20:12:22.343Z,0.77
2018-03-18T20:14:49.709Z,0.62
2018-03-18T20:17:17.048Z,0.51
2018-03-18T20:19:44.392Z,0.12
2018-03-18T20:22:12.333Z,0.12
2018-03-18T20:24:39.691Z,0.07
2018-03-18T20:27:07.067Z,0.09
2018-03-18T20:29:34.436Z,0.23
2018-03-18T20:32:01.827Z,-0.16
2018-03-18T20:34:29.254Z,-0.13
2018-03-18T20:36:56.490Z,-0.11
2018-03-18T20:39:23.739Z,-0.15
2018-03-18T20:41:50.988Z,-0.25
2018-03-18T20:44:19.045Z,-0.31
2018-03-18T20:46:46.421Z,-0.33
2018-03-18T20:49:13.894Z,-0.32
2018-03-18T20:51:41.256Z,-0.32
2018-03-18T20:54:08.550Z,-0.48
2018-03-18T20:56:35.823Z,-0.61
2018-03-18T20:59:03.191Z,-0.54
2018-03-18T21:01:31.152Z,-0.43
2018-03-18T21:03:58.381Z,-0.73
2018-03-18T21:06:25.533Z,-0.69
2018-03-18T21:08:53.813Z,-0.75
2018-03-18T21:11:20.934Z,-0.85
2018-03-18T21:13:48.110Z,-0.65
2018-03-18T21:16:15.686Z,-0.85
2018-03-18T21:18:43.059Z,-0.73
2018-03-18T21:21:10.406Z,-0.90
2018-03-18T21:23:37.737Z,-0.62
2018-03-18T21:26:05.694Z,-0.54
2018-03-18T21:28:33.122Z,-0.62
2018-03-18T21:31:01.115Z,-0.70
2018-03-18T21:33:28.382Z,-0.54
2018-03-18T21:35:55.610Z,-0.45
2018-03-18T21:38:22.862Z,-0.82
2018-03-18T21:40:50.364Z,-0.53
2018-03-18T21:43:17.647Z,-0.60
2018-03-18T21:45:44.855Z,-0.69
2018-03-18T21:48:13.910Z,-0.54
2018-03-18T21:50:41.106Z,-0.78
2018-03-18T21:53:08.376Z,-0.72
2018-03-18T21:55:35.711Z,-0.74
2018-03-18T21:58:03.180Z,-0.80
2018-03-18T22:00:30.396Z,-0.63
2018-03-18T22:02:57.650Z,-0.80
2018-03-18T22:05:25.075Z,-0.78
2018-03-18T22:07:52.381Z,-0.88
2018-03-18T22:10:19.578Z,-0.69
2018-03-18T22:12:46.939Z,-0.67
2018-03-18T22:15:14.219Z,-0.76
2018-03-18T22:17:41.506Z,-0.77
2018-03-18T22:20:11.809Z,-0.59
2018-03-18T22:22:39.060Z,-1.02
2018-03-18T22:25:06.307Z,-0.87
2018-03-18T22:27:33.554Z,-0.83
2018-03-18T22:30:01.786Z,-0.76
2018-03-18T22:32:29.121Z,-0.45
2018-03-18T22:34:56.880Z,-0.69
2018-03-18T22:37:24.259Z,-0.82
2018-03-18T22:39:52.486Z,-0.88
2018-03-18T22:42:19.723Z,-0.92
2018-03-18T22:44:47.062Z,-0.88
2018-03-18T22:47:14.420Z,-0.84
2018-03-18T22:49:42.800Z,-0.50
2018-03-18T22:52:09.893Z,-0.95
2018-03-18T22:54:37.275Z,-0.93
2018-03-18T22:57:04.429Z,-0.75
2018-03-18T22:59:34.566Z,-0.95
2018-03-18T23:02:01.782Z,-0.90
2018-03-18T23:04:29.107Z,-1.11
2018-03-18T23:06:56.302Z,-1.01
2018-03-18T23:09:23.612Z,-0.78
2018-03-18T23:11:51.011Z,-0.98
2018-03-18T23:14:18.263Z,-1.12
2018-03-18T23:16:46.190Z,-0.85
2018-03-18T23:19:14.670Z,-1.10
2018-03-18T23:21:41.955Z,-0.63
2018-03-18T23:24:09.165Z,-1.12
2018-03-18T23:26:36.426Z,-1.08
2018-03-18T23:29:04.810Z,-0.87
2018-03-18T23:31:32.190Z,-1.06
2018-03-18T23:34:00.214Z,-0.83
2018-03-18T23:36:27.425Z,-0.93
2018-03-18T23:38:58.672Z,-1.01
2018-03-18T23:41:26.042Z,-1.10
2018-03-18T23:43:53.358Z,-0.99
2018-03-18T23:46:20.670Z,-0.99
2018-03-18T23:48:49.051Z,-0.97
2018-03-18T23:51:16.288Z,-1.06
2018-03-18T23:53:43.612Z,-1.14
2018-03-18T23:56:10.886Z,-1.17
2018-03-18T23:58:39.386Z,-0.98
